sensor_id;sensor_type;location;lat;lon;timestamp;P1;durP1;ratioP1;P2;durP2;ratioP2
23449;SDS011;11897;45.438;12.128;2023-11-21T00:00:06;46.73;;;29.43;;
23449;SDS011;11897;45.438;12.128;2023-11-21T00:02:38;44.37;;;27.73;;
23449;SDS011;11897;45.438;12.128;2023-11-21T00:05:06;46.20;;;29.07;;
23449;SDS011;11897;45.438;12.128;2023-11-21T00:07:33;45.83;;;28.43;;
23449;SDS011;11897;45.438;12.128;2023-11-21T00:10:00;54.77;;;29.83;;
23449;SDS011;11897;45.438;12.128;2023-11-21T00:12:29;47.37;;;29.90;;
23449;SDS011;11897;45.438;12.128;2023-11-21T00:14:56;51.07;;;29.17;;
23449;SDS011;11897;45.438;12.128;2023-11-21T00:17:23;51.67;;;30.10;;
23449;SDS011;11897;45.438;12.128;2023-11-21T00:19:50;46.20;;;30.30;;
23449;SDS011;11897;45.438;12.128;2023-11-21T00:22:18;49.67;;;30.90;;
23449;SDS011;11897;45.438;12.128;2023-11-21T00:24:45;48.27;;;29.80;;
23449;SDS011;11897;45.438;12.128;2023-11-21T00:27:11;50.20;;;29.43;;
23449;SDS011;11897;45.438;12.128;2023-11-21T00:29:39;49.80;;;29.07;;
23449;SDS011;11897;45.438;12.128;2023-11-21T00:32:06;49.00;;;29.90;;
23449;SDS011;11897;45.438;12.128;2023-11-21T00:34:34;45.37;;;30.37;;
23449;SDS011;11897;45.438;12.128;2023-11-21T00:37:01;48.73;;;29.90;;
23449;SDS011;11897;45.438;12.128;2023-11-21T00:39:28;46.43;;;30.10;;
23449;SDS011;11897;45.438;12.128;2023-11-21T00:41:54;49.67;;;30.70;;
23449;SDS011;11897;45.438;12.128;2023-11-21T00:44:21;48.57;;;29.10;;
23449;SDS011;11897;45.438;12.128;2023-11-21T00:46:49;52.20;;;29.77;;
23449;SDS011;11897;45.438;12.128;2023-11-21T00:49:16;44.47;;;28.73;;
23449;SDS011;11897;45.438;12.128;2023-11-21T00:51:43;46.90;;;28.07;;
23449;SDS011;11897;45.438;12.128;2023-11-21T00:54:10;47.37;;;28.67;;
23449;SDS011;11897;45.438;12.128;2023-11-21T00:56:37;44.37;;;27.80;;
23449;SDS011;11897;45.438;12.128;2023-11-21T00:59:05;43.67;;;27.20;;
23449;SDS011;11897;45.438;12.128;2023-11-21T01:01:32;42.93;;;27.00;;
23449;SDS011;11897;45.438;12.128;2023-11-21T01:04:00;47.03;;;28.77;;
23449;SDS011;11897;45.438;12.128;2023-11-21T01:06:28;43.13;;;27.60;;
23449;SDS011;11897;45.438;12.128;2023-11-21T01:08:55;42.53;;;27.17;;
23449;SDS011;11897;45.438;12.128;2023-11-21T01:11:21;45.93;;;26.90;;
23449;SDS011;11897;45.438;12.128;2023-11-21T01:13:48;44.30;;;27.00;;
23449;SDS011;11897;45.438;12.128;2023-11-21T01:16:15;42.40;;;26.83;;
23449;SDS011;11897;45.438;12.128;2023-11-21T01:18:41;44.80;;;27.03;;
23449;SDS011;11897;45.438;12.128;2023-11-21T01:21:10;42.80;;;27.47;;
23449;SDS011;11897;45.438;12.128;2023-11-21T01:23:37;43.23;;;26.87;;
23449;SDS011;11897;45.438;12.128;2023-11-21T01:26:04;46.27;;;26.77;;
23449;SDS011;11897;45.438;12.128;2023-11-21T01:28:30;43.37;;;26.10;;
23449;SDS011;11897;45.438;12.128;2023-11-21T01:30:57;43.37;;;26.43;;
23449;SDS011;11897;45.438;12.128;2023-11-21T01:33:24;45.67;;;25.83;;
23449;SDS011;11897;45.438;12.128;2023-11-21T01:35:51;42.30;;;26.37;;
23449;SDS011;11897;45.438;12.128;2023-11-21T01:38:21;41.43;;;25.73;;
23449;SDS011;11897;45.438;12.128;2023-11-21T01:40:49;38.23;;;24.20;;
23449;SDS011;11897;45.438;12.128;2023-11-21T01:43:17;41.73;;;25.00;;
23449;SDS011;11897;45.438;12.128;2023-11-21T01:45:47;40.37;;;23.23;;
23449;SDS011;11897;45.438;12.128;2023-11-21T01:48:14;39.43;;;23.77;;
23449;SDS011;11897;45.438;12.128;2023-11-21T01:50:41;36.90;;;22.53;;
23449;SDS011;11897;45.438;12.128;2023-11-21T01:53:11;43.70;;;22.60;;
23449;SDS011;11897;45.438;12.128;2023-11-21T01:55:46;34.50;;;22.37;;
23449;SDS011;11897;45.438;12.128;2023-11-21T01:58:15;36.03;;;22.73;;
23449;SDS011;11897;45.438;12.128;2023-11-21T02:00:43;34.37;;;22.17;;
23449;SDS011;11897;45.438;12.128;2023-11-21T02:03:12;38.80;;;22.27;;
23449;SDS011;11897;45.438;12.128;2023-11-21T02:05:46;36.43;;;21.60;;
23449;SDS011;11897;45.438;12.128;2023-11-21T02:08:13;37.47;;;22.00;;
23449;SDS011;11897;45.438;12.128;2023-11-21T02:10:39;36.83;;;22.33;;
23449;SDS011;11897;45.438;12.128;2023-11-21T02:13:09;33.70;;;21.10;;
23449;SDS011;11897;45.438;12.128;2023-11-21T02:15:36;36.97;;;21.80;;
23449;SDS011;11897;45.438;12.128;2023-11-21T02:18:07;35.93;;;19.87;;
23449;SDS011;11897;45.438;12.128;2023-11-21T02:20:37;32.63;;;20.90;;
23449;SDS011;11897;45.438;12.128;2023-11-21T02:23:05;33.27;;;21.50;;
23449;SDS011;11897;45.438;12.128;2023-11-21T02:25:32;31.40;;;21.00;;
23449;SDS011;11897;45.438;12.128;2023-11-21T02:28:01;34.10;;;20.40;;
23449;SDS011;11897;45.438;12.128;2023-11-21T02:30:29;33.27;;;21.07;;
23449;SDS011;11897;45.438;12.128;2023-11-21T02:32:57;30.10;;;19.67;;
23449;SDS011;11897;45.438;12.128;2023-11-21T02:35:24;30.87;;;20.20;;
23449;SDS011;11897;45.438;12.128;2023-11-21T02:37:52;35.93;;;20.43;;
23449;SDS011;11897;45.438;12.128;2023-11-21T02:40:20;27.93;;;19.20;;
23449;SDS011;11897;45.438;12.128;2023-11-21T02:42:47;31.37;;;18.60;;
23449;SDS011;11897;45.438;12.128;2023-11-21T02:45:13;31.27;;;20.10;;
23449;SDS011;11897;45.438;12.128;2023-11-21T02:47:41;35.47;;;20.30;;
23449;SDS011;11897;45.438;12.128;2023-11-21T02:50:08;31.80;;;20.33;;
23449;SDS011;11897;45.438;12.128;2023-11-21T02:52:35;32.70;;;20.13;;
23449;SDS011;11897;45.438;12.128;2023-11-21T02:55:02;37.43;;;21.57;;
23449;SDS011;11897;45.438;12.128;2023-11-21T02:57:30;30.30;;;19.13;;
23449;SDS011;11897;45.438;12.128;2023-11-21T02:59:57;33.77;;;19.50;;
23449;SDS011;11897;45.438;12.128;2023-11-21T03:02:25;33.67;;;20.80;;
23449;SDS011;11897;45.438;12.128;2023-11-21T03:04:52;32.43;;;19.47;;
23449;SDS011;11897;45.438;12.128;2023-11-21T03:07:18;34.97;;;20.47;;
23449;SDS011;11897;45.438;12.128;2023-11-21T03:09:45;32.37;;;19.60;;
23449;SDS011;11897;45.438;12.128;2023-11-21T03:12:12;34.83;;;20.73;;
23449;SDS011;11897;45.438;12.128;2023-11-21T03:14:42;35.97;;;19.67;;
23449;SDS011;11897;45.438;12.128;2023-11-21T03:17:10;29.07;;;19.03;;
23449;SDS011;11897;45.438;12.128;2023-11-21T03:19:41;31.23;;;20.27;;
23449;SDS011;11897;45.438;12.128;2023-11-21T03:22:09;32.20;;;20.73;;
23449;SDS011;11897;45.438;12.128;2023-11-21T03:24:37;34.53;;;18.83;;
23449;SDS011;11897;45.438;12.128;2023-11-21T03:27:04;36.23;;;20.37;;
23449;SDS011;11897;45.438;12.128;2023-11-21T03:29:31;29.57;;;19.57;;
23449;SDS011;11897;45.438;12.128;2023-11-21T03:32:02;30.00;;;19.50;;
23449;SDS011;11897;45.438;12.128;2023-11-21T03:34:30;32.57;;;19.27;;
23449;SDS011;11897;45.438;12.128;2023-11-21T03:36:57;31.57;;;20.47;;
23449;SDS011;11897;45.438;12.128;2023-11-21T03:39:24;28.60;;;18.83;;
23449;SDS011;11897;45.438;12.128;2023-11-21T03:41:52;32.90;;;20.60;;
23449;SDS011;11897;45.438;12.128;2023-11-21T03:44:19;30.17;;;19.33;;
23449;SDS011;11897;45.438;12.128;2023-11-21T03:46:48;31.67;;;20.97;;
23449;SDS011;11897;45.438;12.128;2023-11-21T03:49:21;31.73;;;19.87;;
23449;SDS011;11897;45.438;12.128;2023-11-21T03:51:48;32.23;;;19.70;;
23449;SDS011;11897;45.438;12.128;2023-11-21T03:54:14;35.10;;;20.30;;
23449;SDS011;11897;45.438;12.128;2023-11-21T03:56:41;32.67;;;20.63;;
23449;SDS011;11897;45.438;12.128;2023-11-21T03:59:08;35.63;;;22.03;;
23449;SDS011;11897;45.438;12.128;2023-11-21T04:01:35;30.80;;;19.97;;
23449;SDS011;11897;45.438;12.128;2023-11-21T04:04:02;36.37;;;21.30;;
23449;SDS011;11897;45.438;12.128;2023-11-21T04:06:30;31.33;;;21.50;;
23449;SDS011;11897;45.438;12.128;2023-11-21T04:08:58;36.07;;;21.30;;
23449;SDS011;11897;45.438;12.128;2023-11-21T04:11:25;33.83;;;20.77;;
23449;SDS011;11897;45.438;12.128;2023-11-21T04:13:53;37.70;;;21.30;;
23449;SDS011;11897;45.438;12.128;2023-11-21T04:16:23;33.60;;;19.60;;
23449;SDS011;11897;45.438;12.128;2023-11-21T04:18:50;31.90;;;19.60;;
23449;SDS011;11897;45.438;12.128;2023-11-21T04:21:17;35.17;;;20.73;;
23449;SDS011;11897;45.438;12.128;2023-11-21T04:23:45;32.30;;;20.57;;
23449;SDS011;11897;45.438;12.128;2023-11-21T04:26:13;30.80;;;19.30;;
23449;SDS011;11897;45.438;12.128;2023-11-21T04:28:40;31.20;;;19.30;;
23449;SDS011;11897;45.438;12.128;2023-11-21T04:31:08;32.10;;;20.20;;
23449;SDS011;11897;45.438;12.128;2023-11-21T04:33:35;34.03;;;21.50;;
23449;SDS011;11897;45.438;12.128;2023-11-21T04:36:02;27.87;;;19.20;;
23449;SDS011;11897;45.438;12.128;2023-11-21T04:38:28;36.27;;;21.87;;
23449;SDS011;11897;45.438;12.128;2023-11-21T04:40:56;33.53;;;20.77;;
23449;SDS011;11897;45.438;12.128;2023-11-21T04:43:23;29.17;;;18.83;;
23449;SDS011;11897;45.438;12.128;2023-11-21T04:45:50;29.20;;;19.37;;
23449;SDS011;11897;45.438;12.128;2023-11-21T04:48:17;30.10;;;19.77;;
23449;SDS011;11897;45.438;12.128;2023-11-21T04:50:43;27.93;;;18.80;;
23449;SDS011;11897;45.438;12.128;2023-11-21T04:53:10;34.97;;;20.30;;
23449;SDS011;11897;45.438;12.128;2023-11-21T04:55:39;30.80;;;20.43;;
23449;SDS011;11897;45.438;12.128;2023-11-21T04:58:08;34.03;;;19.93;;
23449;SDS011;11897;45.438;12.128;2023-11-21T05:00:34;30.00;;;20.60;;
23449;SDS011;11897;45.438;12.128;2023-11-21T05:03:05;32.87;;;19.33;;
23449;SDS011;11897;45.438;12.128;2023-11-21T05:05:32;33.50;;;19.20;;
23449;SDS011;11897;45.438;12.128;2023-11-21T05:07:59;32.10;;;19.40;;
23449;SDS011;11897;45.438;12.128;2023-11-21T05:10:26;33.10;;;21.07;;
23449;SDS011;11897;45.438;12.128;2023-11-21T05:12:53;27.83;;;18.60;;
23449;SDS011;11897;45.438;12.128;2023-11-21T05:15:24;32.80;;;19.07;;
23449;SDS011;11897;45.438;12.128;2023-11-21T05:17:53;26.03;;;17.70;;
23449;SDS011;11897;45.438;12.128;2023-11-21T05:20:20;30.07;;;19.23;;
23449;SDS011;11897;45.438;12.128;2023-11-21T05:22:48;31.00;;;19.63;;
23449;SDS011;11897;45.438;12.128;2023-11-21T05:25:15;29.83;;;18.60;;
23449;SDS011;11897;45.438;12.128;2023-11-21T05:27:44;32.97;;;19.30;;
23449;SDS011;11897;45.438;12.128;2023-11-21T05:30:11;30.57;;;17.80;;
23449;SDS011;11897;45.438;12.128;2023-11-21T05:32:39;27.50;;;18.20;;
23449;SDS011;11897;45.438;12.128;2023-11-21T05:35:07;29.03;;;17.37;;
23449;SDS011;11897;45.438;12.128;2023-11-21T05:37:37;27.73;;;17.80;;
23449;SDS011;11897;45.438;12.128;2023-11-21T05:40:04;32.70;;;19.13;;
23449;SDS011;11897;45.438;12.128;2023-11-21T05:42:31;35.17;;;20.00;;
23449;SDS011;11897;45.438;12.128;2023-11-21T05:44:58;26.33;;;18.40;;
23449;SDS011;11897;45.438;12.128;2023-11-21T05:47:35;31.30;;;18.77;;
23449;SDS011;11897;45.438;12.128;2023-11-21T05:50:04;31.20;;;18.63;;
23449;SDS011;11897;45.438;12.128;2023-11-21T05:52:31;31.70;;;19.00;;
23449;SDS011;11897;45.438;12.128;2023-11-21T05:54:58;32.30;;;19.30;;
23449;SDS011;11897;45.438;12.128;2023-11-21T05:57:25;28.63;;;18.43;;
23449;SDS011;11897;45.438;12.128;2023-11-21T05:59:52;27.10;;;18.27;;
23449;SDS011;11897;45.438;12.128;2023-11-21T06:02:20;31.03;;;19.43;;
23449;SDS011;11897;45.438;12.128;2023-11-21T06:04:46;24.47;;;18.13;;
23449;SDS011;11897;45.438;12.128;2023-11-21T06:07:15;32.13;;;19.37;;
23449;SDS011;11897;45.438;12.128;2023-11-21T06:09:41;26.30;;;17.73;;
23449;SDS011;11897;45.438;12.128;2023-11-21T06:12:10;33.63;;;18.73;;
23449;SDS011;11897;45.438;12.128;2023-11-21T06:14:37;36.80;;;19.27;;
23449;SDS011;11897;45.438;12.128;2023-11-21T06:17:03;28.87;;;18.33;;
23449;SDS011;11897;45.438;12.128;2023-11-21T06:19:30;30.17;;;18.70;;
23449;SDS011;11897;45.438;12.128;2023-11-21T06:21:57;28.03;;;18.27;;
23449;SDS011;11897;45.438;12.128;2023-11-21T06:24:25;29.20;;;18.80;;
23449;SDS011;11897;45.438;12.128;2023-11-21T06:26:51;30.67;;;18.30;;
23449;SDS011;11897;45.438;12.128;2023-11-21T06:29:18;29.90;;;19.73;;
23449;SDS011;11897;45.438;12.128;2023-11-21T06:31:45;33.43;;;20.33;;
23449;SDS011;11897;45.438;12.128;2023-11-21T06:34:11;30.77;;;19.67;;
23449;SDS011;11897;45.438;12.128;2023-11-21T06:36:39;38.37;;;21.57;;
23449;SDS011;11897;45.438;12.128;2023-11-21T06:39:05;30.73;;;20.17;;
23449;SDS011;11897;45.438;12.128;2023-11-21T06:41:34;29.90;;;19.73;;
23449;SDS011;11897;45.438;12.128;2023-11-21T06:44:04;33.67;;;20.17;;
23449;SDS011;11897;45.438;12.128;2023-11-21T06:46:30;30.93;;;18.97;;
23449;SDS011;11897;45.438;12.128;2023-11-21T06:48:57;35.37;;;21.07;;
23449;SDS011;11897;45.438;12.128;2023-11-21T06:51:24;30.17;;;19.93;;
23449;SDS011;11897;45.438;12.128;2023-11-21T06:53:50;30.60;;;19.80;;
23449;SDS011;11897;45.438;12.128;2023-11-21T06:56:17;30.57;;;19.93;;
23449;SDS011;11897;45.438;12.128;2023-11-21T06:58:46;37.03;;;20.73;;
23449;SDS011;11897;45.438;12.128;2023-11-21T07:01:12;38.03;;;20.30;;
23449;SDS011;11897;45.438;12.128;2023-11-21T07:03:40;30.33;;;19.93;;
23449;SDS011;11897;45.438;12.128;2023-11-21T07:06:07;39.23;;;19.67;;
23449;SDS011;11897;45.438;12.128;2023-11-21T07:08:34;33.10;;;21.07;;
23449;SDS011;11897;45.438;12.128;2023-11-21T07:11:01;37.10;;;20.90;;
23449;SDS011;11897;45.438;12.128;2023-11-21T07:13:28;32.00;;;20.27;;
23449;SDS011;11897;45.438;12.128;2023-11-21T07:15:57;35.50;;;20.50;;
23449;SDS011;11897;45.438;12.128;2023-11-21T07:18:24;33.00;;;19.03;;
23449;SDS011;11897;45.438;12.128;2023-11-21T07:20:50;31.83;;;20.70;;
23449;SDS011;11897;45.438;12.128;2023-11-21T07:23:17;31.03;;;18.90;;
23449;SDS011;11897;45.438;12.128;2023-11-21T07:25:44;33.83;;;20.03;;
23449;SDS011;11897;45.438;12.128;2023-11-21T07:28:11;32.03;;;19.17;;
23449;SDS011;11897;45.438;12.128;2023-11-21T07:30:38;27.47;;;18.57;;
23449;SDS011;11897;45.438;12.128;2023-11-21T07:33:06;30.10;;;18.57;;
23449;SDS011;11897;45.438;12.128;2023-11-21T07:35:32;31.27;;;19.00;;
23449;SDS011;11897;45.438;12.128;2023-11-21T07:37:59;31.67;;;18.87;;
23449;SDS011;11897;45.438;12.128;2023-11-21T07:40:26;29.40;;;18.43;;
23449;SDS011;11897;45.438;12.128;2023-11-21T07:42:53;29.83;;;19.13;;
23449;SDS011;11897;45.438;12.128;2023-11-21T07:45:22;32.10;;;19.13;;
23449;SDS011;11897;45.438;12.128;2023-11-21T07:47:49;28.03;;;18.53;;
23449;SDS011;11897;45.438;12.128;2023-11-21T07:50:19;33.40;;;19.73;;
23449;SDS011;11897;45.438;12.128;2023-11-21T07:52:47;30.33;;;18.20;;
23449;SDS011;11897;45.438;12.128;2023-11-21T07:55:16;33.13;;;18.83;;
23449;SDS011;11897;45.438;12.128;2023-11-21T07:57:43;29.67;;;18.47;;
23449;SDS011;11897;45.438;12.128;2023-11-21T08:00:10;27.87;;;19.10;;
23449;SDS011;11897;45.438;12.128;2023-11-21T08:02:40;28.90;;;18.93;;
23449;SDS011;11897;45.438;12.128;2023-11-21T08:05:08;32.07;;;18.63;;
23449;SDS011;11897;45.438;12.128;2023-11-21T08:07:37;29.20;;;19.20;;
23449;SDS011;11897;45.438;12.128;2023-11-21T08:10:04;35.07;;;19.13;;
23449;SDS011;11897;45.438;12.128;2023-11-21T08:12:31;26.77;;;18.27;;
23449;SDS011;11897;45.438;12.128;2023-11-21T08:14:58;31.07;;;20.03;;
23449;SDS011;11897;45.438;12.128;2023-11-21T08:17:25;31.73;;;18.03;;
23449;SDS011;11897;45.438;12.128;2023-11-21T08:19:52;30.23;;;18.43;;
23449;SDS011;11897;45.438;12.128;2023-11-21T08:22:19;27.70;;;18.70;;
23449;SDS011;11897;45.438;12.128;2023-11-21T08:24:47;28.10;;;17.43;;
23449;SDS011;11897;45.438;12.128;2023-11-21T08:27:13;29.50;;;18.27;;
23449;SDS011;11897;45.438;12.128;2023-11-21T08:29:41;29.07;;;19.00;;
23449;SDS011;11897;45.438;12.128;2023-11-21T08:32:08;32.73;;;19.43;;
23449;SDS011;11897;45.438;12.128;2023-11-21T08:34:36;27.33;;;18.23;;
23449;SDS011;11897;45.438;12.128;2023-11-21T08:37:05;29.80;;;18.60;;
23449;SDS011;11897;45.438;12.128;2023-11-21T08:39:32;32.27;;;19.83;;
23449;SDS011;11897;45.438;12.128;2023-11-21T08:42:00;26.10;;;17.43;;
23449;SDS011;11897;45.438;12.128;2023-11-21T08:44:27;27.30;;;16.20;;
23449;SDS011;11897;45.438;12.128;2023-11-21T08:46:55;24.70;;;15.83;;
23449;SDS011;11897;45.438;12.128;2023-11-21T08:49:22;30.03;;;16.53;;
23449;SDS011;11897;45.438;12.128;2023-11-21T08:51:51;27.50;;;16.90;;
23449;SDS011;11897;45.438;12.128;2023-11-21T08:54:17;29.67;;;16.70;;
23449;SDS011;11897;45.438;12.128;2023-11-21T08:56:45;24.60;;;16.43;;
23449;SDS011;11897;45.438;12.128;2023-11-21T08:59:13;24.93;;;16.47;;
23449;SDS011;11897;45.438;12.128;2023-11-21T09:01:40;26.33;;;16.63;;
23449;SDS011;11897;45.438;12.128;2023-11-21T09:04:07;28.73;;;17.90;;
23449;SDS011;11897;45.438;12.128;2023-11-21T09:06:34;28.87;;;17.33;;
23449;SDS011;11897;45.438;12.128;2023-11-21T09:09:01;24.77;;;16.93;;
23449;SDS011;11897;45.438;12.128;2023-11-21T09:11:30;25.17;;;16.57;;
23449;SDS011;11897;45.438;12.128;2023-11-21T09:13:59;26.43;;;15.67;;
23449;SDS011;11897;45.438;12.128;2023-11-21T09:16:27;25.33;;;17.23;;
23449;SDS011;11897;45.438;12.128;2023-11-21T09:18:53;27.00;;;17.07;;
23449;SDS011;11897;45.438;12.128;2023-11-21T09:21:20;26.97;;;15.47;;
23449;SDS011;11897;45.438;12.128;2023-11-21T09:23:47;22.13;;;14.77;;
23449;SDS011;11897;45.438;12.128;2023-11-21T09:26:14;27.93;;;16.20;;
23449;SDS011;11897;45.438;12.128;2023-11-21T09:28:41;23.67;;;15.43;;
23449;SDS011;11897;45.438;12.128;2023-11-21T09:31:11;24.00;;;14.83;;
23449;SDS011;11897;45.438;12.128;2023-11-21T09:33:42;24.43;;;15.37;;
23449;SDS011;11897;45.438;12.128;2023-11-21T09:36:11;20.47;;;14.60;;
23449;SDS011;11897;45.438;12.128;2023-11-21T09:38:37;21.03;;;14.33;;
23449;SDS011;11897;45.438;12.128;2023-11-21T09:41:05;20.77;;;13.73;;
23449;SDS011;11897;45.438;12.128;2023-11-21T09:43:33;21.00;;;14.13;;
23449;SDS011;11897;45.438;12.128;2023-11-21T09:46:01;19.60;;;13.30;;
23449;SDS011;11897;45.438;12.128;2023-11-21T09:48:29;20.70;;;13.80;;
23449;SDS011;11897;45.438;12.128;2023-11-21T09:50:58;22.77;;;14.30;;
23449;SDS011;11897;45.438;12.128;2023-11-21T09:53:26;18.80;;;12.63;;
23449;SDS011;11897;45.438;12.128;2023-11-21T09:55:56;20.30;;;12.07;;
23449;SDS011;11897;45.438;12.128;2023-11-21T09:58:25;17.97;;;12.87;;
23449;SDS011;11897;45.438;12.128;2023-11-21T10:00:56;18.13;;;12.73;;
23449;SDS011;11897;45.438;12.128;2023-11-21T10:03:25;16.77;;;11.27;;
23449;SDS011;11897;45.438;12.128;2023-11-21T10:05:52;17.60;;;11.70;;
23449;SDS011;11897;45.438;12.128;2023-11-21T10:08:27;20.30;;;10.80;;
23449;SDS011;11897;45.438;12.128;2023-11-21T10:10:55;16.53;;;11.57;;
23449;SDS011;11897;45.438;12.128;2023-11-21T10:13:22;17.13;;;10.73;;
23449;SDS011;11897;45.438;12.128;2023-11-21T10:15:49;19.17;;;11.07;;
23449;SDS011;11897;45.438;12.128;2023-11-21T10:18:16;21.10;;;11.43;;
23449;SDS011;11897;45.438;12.128;2023-11-21T10:20:42;18.00;;;10.90;;
23449;SDS011;11897;45.438;12.128;2023-11-21T10:23:11;18.87;;;11.47;;
23449;SDS011;11897;45.438;12.128;2023-11-21T10:25:41;19.87;;;11.93;;
23449;SDS011;11897;45.438;12.128;2023-11-21T10:28:08;21.90;;;12.30;;
23449;SDS011;11897;45.438;12.128;2023-11-21T10:30:36;21.60;;;11.83;;
23449;SDS011;11897;45.438;12.128;2023-11-21T10:33:03;18.13;;;11.70;;
23449;SDS011;11897;45.438;12.128;2023-11-21T10:35:42;17.13;;;11.93;;
23449;SDS011;11897;45.438;12.128;2023-11-21T10:38:12;18.60;;;11.50;;
23449;SDS011;11897;45.438;12.128;2023-11-21T10:40:41;18.30;;;11.10;;
23449;SDS011;11897;45.438;12.128;2023-11-21T10:43:11;16.07;;;11.13;;
23449;SDS011;11897;45.438;12.128;2023-11-21T10:45:40;16.73;;;11.30;;
23449;SDS011;11897;45.438;12.128;2023-11-21T10:48:07;15.87;;;10.83;;
23449;SDS011;11897;45.438;12.128;2023-11-21T10:50:35;21.90;;;11.30;;
23449;SDS011;11897;45.438;12.128;2023-11-21T10:53:03;16.13;;;11.47;;
23449;SDS011;11897;45.438;12.128;2023-11-21T10:55:30;19.73;;;11.07;;
23449;SDS011;11897;45.438;12.128;2023-11-21T10:58:00;17.23;;;11.87;;
23449;SDS011;11897;45.438;12.128;2023-11-21T11:00:28;18.10;;;11.77;;
23449;SDS011;11897;45.438;12.128;2023-11-21T11:02:55;17.50;;;11.37;;
23449;SDS011;11897;45.438;12.128;2023-11-21T11:05:24;17.97;;;11.37;;
23449;SDS011;11897;45.438;12.128;2023-11-21T11:07:51;19.23;;;11.83;;
23449;SDS011;11897;45.438;12.128;2023-11-21T11:10:19;14.93;;;11.20;;
23449;SDS011;11897;45.438;12.128;2023-11-21T11:12:48;17.13;;;10.97;;
23449;SDS011;11897;45.438;12.128;2023-11-21T11:15:19;17.40;;;11.90;;
23449;SDS011;11897;45.438;12.128;2023-11-21T11:17:45;18.73;;;11.03;;
23449;SDS011;11897;45.438;12.128;2023-11-21T11:20:13;14.37;;;10.60;;
23449;SDS011;11897;45.438;12.128;2023-11-21T11:22:43;16.73;;;11.27;;
23449;SDS011;11897;45.438;12.128;2023-11-21T11:25:19;15.13;;;10.37;;
23449;SDS011;11897;45.438;12.128;2023-11-21T11:27:49;13.20;;;9.83;;
23449;SDS011;11897;45.438;12.128;2023-11-21T11:30:23;14.50;;;8.93;;
23449;SDS011;11897;45.438;12.128;2023-11-21T11:32:55;13.70;;;8.03;;
23449;SDS011;11897;45.438;12.128;2023-11-21T11:35:26;9.43;;;6.90;;
23449;SDS011;11897;45.438;12.128;2023-11-21T11:37:55;5.60;;;4.60;;
23449;SDS011;11897;45.438;12.128;2023-11-21T11:40:22;4.27;;;2.70;;
23449;SDS011;11897;45.438;12.128;2023-11-21T11:42:56;2.40;;;1.83;;
23449;SDS011;11897;45.438;12.128;2023-11-21T11:45:26;2.40;;;1.50;;
23449;SDS011;11897;45.438;12.128;2023-11-21T11:47:59;1.77;;;1.17;;
23449;SDS011;11897;45.438;12.128;2023-11-21T11:50:27;2.93;;;1.33;;
23449;SDS011;11897;45.438;12.128;2023-11-21T11:52:55;2.13;;;1.10;;
23449;SDS011;11897;45.438;12.128;2023-11-21T11:55:38;1.80;;;0.80;;
23449;SDS011;11897;45.438;12.128;2023-11-21T11:58:05;1.20;;;0.70;;
23449;SDS011;11897;45.438;12.128;2023-11-21T12:00:34;2.50;;;1.00;;
23449;SDS011;11897;45.438;12.128;2023-11-21T12:03:03;0.90;;;0.80;;
23449;SDS011;11897;45.438;12.128;2023-11-21T12:05:30;0.90;;;0.67;;
23449;SDS011;11897;45.438;12.128;2023-11-21T12:08:01;0.80;;;0.70;;
23449;SDS011;11897;45.438;12.128;2023-11-21T12:10:30;0.80;;;0.57;;
23449;SDS011;11897;45.438;12.128;2023-11-21T12:12:58;1.43;;;1.00;;
23449;SDS011;11897;45.438;12.128;2023-11-21T12:15:25;1.47;;;0.87;;
23449;SDS011;11897;45.438;12.128;2023-11-21T12:17:57;0.70;;;0.70;;
23449;SDS011;11897;45.438;12.128;2023-11-21T12:20:24;0.77;;;0.70;;
23449;SDS011;11897;45.438;12.128;2023-11-21T12:22:53;1.30;;;0.87;;
23449;SDS011;11897;45.438;12.128;2023-11-21T12:25:20;0.87;;;0.70;;
23449;SDS011;11897;45.438;12.128;2023-11-21T12:27:48;1.30;;;0.60;;
23449;SDS011;11897;45.438;12.128;2023-11-21T12:30:15;2.87;;;0.73;;
23449;SDS011;11897;45.438;12.128;2023-11-21T12:32:43;2.50;;;0.80;;
23449;SDS011;11897;45.438;12.128;2023-11-21T12:35:12;1.57;;;0.70;;
23449;SDS011;11897;45.438;12.128;2023-11-21T12:37:39;0.80;;;0.73;;
23449;SDS011;11897;45.438;12.128;2023-11-21T12:40:08;1.20;;;0.80;;
23449;SDS011;11897;45.438;12.128;2023-11-21T12:42:37;0.97;;;0.90;;
23449;SDS011;11897;45.438;12.128;2023-11-21T12:45:08;0.60;;;0.60;;
23449;SDS011;11897;45.438;12.128;2023-11-21T12:47:39;2.10;;;0.77;;
23449;SDS011;11897;45.438;12.128;2023-11-21T12:50:07;1.27;;;1.00;;
23449;SDS011;11897;45.438;12.128;2023-11-21T12:52:41;0.93;;;0.73;;
23449;SDS011;11897;45.438;12.128;2023-11-21T12:55:13;1.40;;;0.80;;
23449;SDS011;11897;45.438;12.128;2023-11-21T12:57:41;1.47;;;0.80;;
23449;SDS011;11897;45.438;12.128;2023-11-21T13:00:08;1.23;;;0.70;;
23449;SDS011;11897;45.438;12.128;2023-11-21T13:02:41;1.37;;;0.90;;
23449;SDS011;11897;45.438;12.128;2023-11-21T13:05:08;1.00;;;0.70;;
23449;SDS011;11897;45.438;12.128;2023-11-21T13:07:48;0.80;;;0.70;;
23449;SDS011;11897;45.438;12.128;2023-11-21T13:10:19;1.23;;;0.90;;
23449;SDS011;11897;45.438;12.128;2023-11-21T13:12:51;1.53;;;0.80;;
23449;SDS011;11897;45.438;12.128;2023-11-21T13:15:17;2.27;;;1.00;;
23449;SDS011;11897;45.438;12.128;2023-11-21T13:17:44;2.40;;;1.03;;
23449;SDS011;11897;45.438;12.128;2023-11-21T13:20:12;2.10;;;1.00;;
23449;SDS011;11897;45.438;12.128;2023-11-21T13:22:44;1.23;;;0.90;;
23449;SDS011;11897;45.438;12.128;2023-11-21T13:25:13;2.57;;;1.10;;
23449;SDS011;11897;45.438;12.128;2023-11-21T13:27:43;2.77;;;1.10;;
23449;SDS011;11897;45.438;12.128;2023-11-21T13:30:11;2.00;;;1.00;;
23449;SDS011;11897;45.438;12.128;2023-11-21T13:32:40;1.10;;;1.00;;
23449;SDS011;11897;45.438;12.128;2023-11-21T13:35:08;0.90;;;0.70;;
23449;SDS011;11897;45.438;12.128;2023-11-21T13:37:40;1.63;;;0.70;;
23449;SDS011;11897;45.438;12.128;2023-11-21T13:40:10;1.33;;;1.00;;
23449;SDS011;11897;45.438;12.128;2023-11-21T13:42:42;1.00;;;0.83;;
23449;SDS011;11897;45.438;12.128;2023-11-21T13:45:09;1.40;;;0.80;;
23449;SDS011;11897;45.438;12.128;2023-11-21T13:47:37;1.00;;;0.87;;
23449;SDS011;11897;45.438;12.128;2023-11-21T13:50:05;1.53;;;1.20;;
23449;SDS011;11897;45.438;12.128;2023-11-21T13:52:39;2.33;;;0.90;;
23449;SDS011;11897;45.438;12.128;2023-11-21T13:55:06;2.17;;;1.20;;
23449;SDS011;11897;45.438;12.128;2023-11-21T13:57:39;1.17;;;1.07;;
23449;SDS011;11897;45.438;12.128;2023-11-21T14:00:12;2.70;;;1.40;;
23449;SDS011;11897;45.438;12.128;2023-11-21T14:02:59;0.80;;;0.80;;
23449;SDS011;11897;45.438;12.128;2023-11-21T14:05:26;3.03;;;1.10;;
23449;SDS011;11897;45.438;12.128;2023-11-21T14:07:55;1.57;;;0.90;;
23449;SDS011;11897;45.438;12.128;2023-11-21T14:10:27;1.23;;;0.87;;
23449;SDS011;11897;45.438;12.128;2023-11-21T14:13:02;1.67;;;1.03;;
23449;SDS011;11897;45.438;12.128;2023-11-21T14:15:30;1.67;;;1.00;;
23449;SDS011;11897;45.438;12.128;2023-11-21T14:17:58;1.77;;;0.97;;